createdAt,value
2023-02-08T00:01:12.753Z,101020.22
2023-02-08T00:03:39.799Z,101033.16
2023-02-08T00:06:08.884Z,101029.63
2023-02-08T00:08:37.039Z,101029.41
2023-02-08T00:11:06.261Z,101032.81
2023-02-08T00:13:34.580Z,101037.25
2023-02-08T00:16:01.850Z,101027.78
2023-02-08T00:18:29.214Z,101035.53
2023-02-08T00:20:57.455Z,101032.81
2023-02-08T00:23:26.279Z,101027.59
2023-02-08T00:25:53.469Z,101037.88
2023-02-08T00:28:20.620Z,101030.03
2023-02-08T00:30:48.833Z,101033.34
2023-02-08T00:33:15.854Z,101038.38
2023-02-08T00:35:43.270Z,101034.13
2023-02-08T00:38:10.365Z,101045.19
2023-02-08T00:40:37.908Z,101039.00
2023-02-08T00:43:05.475Z,101031.94
2023-02-08T00:45:33.958Z,101037.78
2023-02-08T00:48:00.998Z,101037.50
2023-02-08T00:50:28.213Z,101046.81
2023-02-08T00:52:55.179Z,101044.97
2023-02-08T00:55:22.406Z,101042.25
2023-02-08T00:57:49.377Z,101042.94
2023-02-08T01:00:16.896Z,101039.53
2023-02-08T01:02:43.984Z,101036.72
2023-02-08T01:05:11.678Z,101040.19
2023-02-08T01:07:39.532Z,101041.78
2023-02-08T01:10:12.423Z,101043.19
2023-02-08T01:12:39.658Z,101042.16
2023-02-08T01:15:07.574Z,101043.84
2023-02-08T01:17:34.625Z,101041.09
2023-02-08T01:20:01.953Z,101038.50
2023-02-08T01:22:30.298Z,101048.94
2023-02-08T01:24:57.484Z,101051.50
2023-02-08T01:27:24.410Z,101057.59
2023-02-08T01:29:51.719Z,101058.91
2023-02-08T01:32:18.802Z,101058.63
2023-02-08T01:34:45.970Z,101049.31
2023-02-08T01:37:12.894Z,101049.16
2023-02-08T01:39:40.073Z,101045.94
2023-02-08T01:42:07.190Z,101042.53
2023-02-08T01:45:23.106Z,101041.63
2023-02-08T01:48:26.112Z,101033.97
2023-02-08T01:51:09.389Z,101027.84
2023-02-08T01:53:37.137Z,101029.53
2023-02-08T01:56:11.823Z,101032.25
2023-02-08T01:58:45.831Z,101032.94
2023-02-08T02:01:14.591Z,101036.47
2023-02-08T02:03:42.677Z,101029.63
2023-02-08T02:06:21.450Z,101034.72
2023-02-08T02:09:07.517Z,101028.47
2023-02-08T02:11:35.192Z,101028.44
2023-02-08T02:14:03.954Z,101021.66
2023-02-08T02:16:31.572Z,101023.53
2023-02-08T02:18:58.925Z,101017.56
2023-02-08T02:21:51.192Z,101018.44
2023-02-08T02:25:00.463Z,101023.47
2023-02-08T02:28:03.118Z,101022.53
2023-02-08T02:30:47.902Z,101031.03
2023-02-08T02:33:48.137Z,101018.03
2023-02-08T02:36:52.156Z,101023.94
2023-02-08T02:39:39.075Z,101025.47
2023-02-08T02:42:36.873Z,101028.66
2023-02-08T02:45:16.372Z,101030.16
2023-02-08T02:47:59.389Z,101022.16
2023-02-08T02:50:43.934Z,101028.88
2023-02-08T02:53:47.364Z,101024.53
2023-02-08T02:56:49.217Z,101036.56
2023-02-08T02:59:19.597Z,101036.50
2023-02-08T03:01:47.869Z,101033.81
2023-02-08T03:04:38.226Z,101045.78
2023-02-08T03:07:20.780Z,101042.97
2023-02-08T03:10:15.720Z,101046.16
2023-02-08T03:13:12.060Z,101049.44
2023-02-08T03:16:13.213Z,101052.84
2023-02-08T03:19:06.335Z,101052.03
2023-02-08T03:21:42.450Z,101046.94
2023-02-08T03:24:40.110Z,101049.28
2023-02-08T03:27:24.725Z,101047.63
2023-02-08T03:30:13.741Z,101051.00
2023-02-08T03:32:50.517Z,101047.63
2023-02-08T03:35:37.538Z,101054.34
2023-02-08T03:38:21.582Z,101049.88
2023-02-08T03:40:54.958Z,101050.63
2023-02-08T03:43:42.753Z,101053.06
2023-02-08T03:46:26.589Z,101064.19
2023-02-08T03:49:04.852Z,101063.06
2023-02-08T03:51:36.593Z,101063.81
2023-02-08T03:54:12.827Z,101067.78
2023-02-08T03:57:08.589Z,101071.72
2023-02-08T03:59:40.195Z,101075.19
2023-02-08T04:02:17.062Z,101070.34
2023-02-08T04:04:51.007Z,101081.47
2023-02-08T04:07:20.195Z,101073.88
2023-02-08T04:09:47.402Z,101075.59
2023-02-08T04:12:15.204Z,101075.59
2023-02-08T04:14:42.232Z,101066.94
2023-02-08T04:17:09.620Z,101069.00
2023-02-08T04:19:36.649Z,101071.31
2023-02-08T04:22:03.967Z,101074.00
2023-02-08T04:24:31.078Z,101079.22
2023-02-08T04:26:58.548Z,101081.44
2023-02-08T04:29:25.686Z,101080.69
2023-02-08T04:31:53.134Z,101078.28
2023-02-08T04:34:20.293Z,101084.31
2023-02-08T04:36:47.462Z,101077.56
2023-02-08T04:39:14.540Z,101080.19
2023-02-08T04:41:41.921Z,101079.47
2023-02-08T04:44:08.897Z,101077.78
2023-02-08T04:46:36.242Z,101080.53
2023-02-08T04:49:03.217Z,101081.81
2023-02-08T04:51:30.481Z,101076.06
2023-02-08T04:53:57.413Z,101084.84
2023-02-08T04:56:24.584Z,101080.50
2023-02-08T04:58:51.463Z,101090.00
2023-02-08T05:01:18.792Z,101081.97
2023-02-08T05:03:45.794Z,101088.16
2023-02-08T05:06:13.407Z,101088.88
2023-02-08T05:08:40.722Z,101095.84
2023-02-08T05:11:08.131Z,101090.66
2023-02-08T05:13:35.078Z,101089.88
2023-02-08T05:16:02.549Z,101082.13
2023-02-08T05:18:29.476Z,101088.00
2023-02-08T05:20:59.253Z,101094.03
2023-02-08T05:23:27.290Z,101092.13
2023-02-08T05:25:54.508Z,101089.47
2023-02-08T05:28:21.696Z,101088.59
2023-02-08T05:30:49.390Z,101087.75
2023-02-08T05:33:16.539Z,101084.56
2023-02-08T05:35:45.712Z,101094.97
2023-02-08T05:38:12.837Z,101091.72
2023-02-08T05:40:40.417Z,101101.25
2023-02-08T05:43:07.544Z,101104.53
2023-02-08T05:45:34.812Z,101106.31
2023-02-08T05:48:01.841Z,101108.06
2023-02-08T05:50:29.144Z,101103.56
2023-02-08T05:52:56.048Z,101098.25
2023-02-08T05:55:23.378Z,101106.00
2023-02-08T05:57:50.343Z,101117.94
2023-02-08T06:00:17.852Z,101119.06
2023-02-08T06:02:44.791Z,101123.09
2023-02-08T06:05:12.316Z,101125.75
2023-02-08T06:07:39.244Z,101123.09
2023-02-08T06:10:07.209Z,101124.72
2023-02-08T06:12:34.097Z,101133.41
2023-02-08T06:15:01.329Z,101128.09
2023-02-08T06:17:28.705Z,101131.50
2023-02-08T06:19:55.974Z,101139.06
2023-02-08T06:22:23.009Z,101142.84
2023-02-08T06:24:50.225Z,101137.69
2023-02-08T06:27:17.212Z,101147.84
2023-02-08T06:29:44.829Z,101143.41
2023-02-08T06:32:12.220Z,101136.66
2023-02-08T06:34:39.636Z,101138.72
2023-02-08T06:37:06.615Z,101143.09
2023-02-08T06:39:34.197Z,101145.66
2023-02-08T06:42:01.345Z,101149.03
2023-02-08T06:44:28.594Z,101140.59
2023-02-08T06:46:55.593Z,101138.47
2023-02-08T06:49:22.906Z,101144.63
2023-02-08T06:51:49.821Z,101141.97
2023-02-08T06:54:17.227Z,101144.22
2023-02-08T06:56:44.723Z,101144.03
2023-02-08T06:59:12.017Z,101144.63
2023-02-08T07:01:39.227Z,101142.28
2023-02-08T07:04:06.726Z,101146.38
2023-02-08T07:06:33.913Z,101150.91
2023-02-08T07:09:02.744Z,101155.50
2023-02-08T07:11:30.107Z,101153.72
2023-02-08T07:13:57.360Z,101163.94
2023-02-08T07:16:24.489Z,101161.00
2023-02-08T07:18:51.852Z,101163.78
2023-02-08T07:21:18.831Z,101162.03
2023-02-08T07:23:46.176Z,101165.66
2023-02-08T07:26:15.144Z,101156.31
2023-02-08T07:28:42.913Z,101168.56
2023-02-08T07:31:14.650Z,101164.84
2023-02-08T07:33:42.424Z,101175.50
2023-02-08T07:36:10.815Z,101173.78
2023-02-08T07:38:38.754Z,101174.91
2023-02-08T07:41:13.173Z,101173.41
2023-02-08T07:43:42.006Z,101178.78
2023-02-08T07:46:15.237Z,101176.53
2023-02-08T07:48:43.525Z,101186.94
2023-02-08T07:51:12.328Z,101186.13
2023-02-08T07:53:39.940Z,101188.00
2023-02-08T07:56:07.728Z,101191.25
2023-02-08T07:58:34.950Z,101191.44
2023-02-08T08:01:15.814Z,101197.56
2023-02-08T08:03:49.318Z,101196.69
2023-02-08T08:06:16.571Z,101198.94
2023-02-08T08:08:47.438Z,101196.00
2023-02-08T08:11:19.051Z,101189.97
2023-02-08T08:13:46.348Z,101183.44
2023-02-08T08:16:14.540Z,101186.72
2023-02-08T08:18:41.879Z,101184.47
2023-02-08T08:21:08.939Z,101185.41
2023-02-08T08:23:36.447Z,101174.66
2023-02-08T08:26:13.926Z,101178.34
2023-02-08T08:28:42.371Z,101176.22
2023-02-08T08:31:17.375Z,101173.88
2023-02-08T08:33:45.595Z,101182.22
2023-02-08T08:36:12.757Z,101180.38
2023-02-08T08:38:41.123Z,101179.13
2023-02-08T08:41:10.899Z,101184.13
2023-02-08T08:43:38.862Z,101184.81
2023-02-08T08:46:08.051Z,101179.28
2023-02-08T08:48:38.776Z,101183.56
2023-02-08T08:51:07.053Z,101186.22
2023-02-08T08:53:35.178Z,101184.75
2023-02-08T08:56:02.315Z,101186.50
2023-02-08T08:58:30.103Z,101188.72
2023-02-08T09:00:59.005Z,101189.00
2023-02-08T09:03:28.714Z,101186.72
2023-02-08T09:05:56.740Z,101185.16
2023-02-08T09:08:23.936Z,101178.91
2023-02-08T09:10:51.075Z,101175.03
2023-02-08T09:13:21.923Z,101176.25
2023-02-08T09:15:49.948Z,101180.31
2023-02-08T09:18:17.675Z,101182.44
2023-02-08T09:20:44.970Z,101182.78
2023-02-08T09:23:12.878Z,101182.72
2023-02-08T09:25:40.212Z,101188.38
2023-02-08T09:28:07.624Z,101179.66
2023-02-08T09:30:34.592Z,101183.25
2023-02-08T09:33:01.869Z,101174.22
2023-02-08T09:35:28.886Z,101185.59
2023-02-08T09:37:58.261Z,101180.69
2023-02-08T09:40:38.162Z,101174.94
2023-02-08T09:43:43.925Z,101184.69
2023-02-08T09:46:22.956Z,101181.50
2023-02-08T09:48:56.412Z,101173.47
2023-02-08T09:51:39.613Z,101178.97
2023-02-08T09:54:28.510Z,101175.09
2023-02-08T09:56:58.490Z,101183.00
2023-02-08T09:59:31.540Z,101175.22
2023-02-08T10:02:27.425Z,101163.38
2023-02-08T10:05:06.085Z,101169.75
2023-02-08T10:07:35.775Z,101171.66
2023-02-08T10:10:12.286Z,101154.19
2023-02-08T10:13:14.165Z,101160.09
2023-02-08T10:16:00.265Z,101150.66
2023-02-08T10:18:52.011Z,101145.09
2023-02-08T10:22:17.128Z,101150.41
2023-02-08T10:25:36.938Z,101130.78
2023-02-08T10:28:36.064Z,101138.03
2023-02-08T10:31:38.640Z,101137.31
2023-02-08T10:34:36.754Z,101136.50
2023-02-08T10:37:18.836Z,101125.41
2023-02-08T10:39:46.829Z,101123.72
2023-02-08T10:42:18.498Z,101125.66
2023-02-08T10:45:01.080Z,101125.84
2023-02-08T10:47:52.167Z,101118.25
2023-02-08T10:50:42.456Z,101111.34
2023-02-08T10:53:16.984Z,101124.78
2023-02-08T10:55:47.889Z,101111.91
2023-02-08T10:58:21.112Z,101112.97
2023-02-08T11:00:51.984Z,101117.09
2023-02-08T11:03:25.276Z,101119.22
2023-02-08T11:05:53.824Z,101124.47
2023-02-08T11:08:24.866Z,101113.16
2023-02-08T11:11:07.918Z,101107.59
2023-02-08T11:13:42.414Z,101104.06
2023-02-08T11:16:20.341Z,101103.50
2023-02-08T11:19:01.984Z,101101.94
2023-02-08T11:21:36.679Z,101096.81
2023-02-08T11:24:07.876Z,101093.53
2023-02-08T11:26:38.280Z,101095.47
2023-02-08T11:29:29.527Z,101099.78
2023-02-08T11:32:03.323Z,101093.91
2023-02-08T11:34:38.946Z,101088.66
2023-02-08T11:37:23.332Z,101078.53
2023-02-08T11:39:55.437Z,101074.22
2023-02-08T11:42:37.173Z,101063.63
2023-02-08T11:45:06.306Z,101074.22
2023-02-08T11:47:37.598Z,101074.16
2023-02-08T11:50:09.566Z,101062.38
2023-02-08T11:52:43.690Z,101071.09
2023-02-08T11:55:26.100Z,101070.50
2023-02-08T11:58:19.488Z,101066.34
2023-02-08T12:01:20.559Z,101062.16
2023-02-08T12:03:52.944Z,101061.31
2023-02-08T12:06:54.368Z,101062.41
2023-02-08T12:09:43.820Z,101055.09
2023-02-08T12:12:44.507Z,101055.78
2023-02-08T12:16:01.723Z,101058.13
2023-02-08T12:18:56.851Z,101052.41
2023-02-08T12:21:42.630Z,101055.75
2023-02-08T12:24:41.546Z,101046.84
2023-02-08T12:27:46.552Z,101050.50
2023-02-08T12:30:28.844Z,101050.84
2023-02-08T12:33:19.771Z,101037.19
2023-02-08T12:36:15.097Z,101032.38
2023-02-08T12:39:39.622Z,101030.84
2023-02-08T12:42:41.278Z,101017.56
2023-02-08T12:45:42.386Z,101007.47
2023-02-08T12:48:32.216Z,101011.97
2023-02-08T12:51:41.088Z,101013.94
2023-02-08T12:54:18.459Z,100994.63
2023-02-08T12:57:01.568Z,100994.06
2023-02-08T13:00:08.338Z,100989.00
2023-02-08T13:02:49.664Z,100994.31
2023-02-08T13:05:22.469Z,100995.69
2023-02-08T13:08:01.950Z,100984.56
2023-02-08T13:10:42.619Z,100978.69
2023-02-08T13:13:24.552Z,100958.31
2023-02-08T13:16:21.468Z,100960.13
2023-02-08T13:19:29.963Z,100959.25
2023-02-08T13:22:00.446Z,100961.34
2023-02-08T13:24:37.083Z,100958.78
2023-02-08T13:27:07.647Z,100958.09
2023-02-08T13:29:36.800Z,100955.66
2023-02-08T13:32:18.545Z,100962.63
2023-02-08T13:34:55.493Z,100958.38
2023-02-08T13:37:33.682Z,100962.84
2023-02-08T13:40:33.855Z,100962.00
2023-02-08T13:43:35.497Z,100963.81
2023-02-08T13:46:05.832Z,100957.78
2023-02-08T13:48:48.242Z,100975.25
2023-02-08T13:51:33.652Z,100971.31
2023-02-08T13:54:00.873Z,100957.78
2023-02-08T13:56:50.792Z,100966.56
2023-02-08T13:59:41.349Z,100965.78
2023-02-08T14:02:20.064Z,100969.16
2023-02-08T14:04:54.530Z,100963.00
2023-02-08T14:07:59.114Z,100962.03
2023-02-08T14:10:39.113Z,100961.22
2023-02-08T14:13:25.045Z,100955.03
2023-02-08T14:16:33.223Z,100948.78
2023-02-08T14:19:18.994Z,100953.19
2023-02-08T14:22:28.964Z,100958.38
2023-02-08T14:25:20.007Z,100957.56
2023-02-08T14:28:06.923Z,100959.09
2023-02-08T14:30:38.635Z,100954.00
2023-02-08T14:33:07.413Z,100948.78
2023-02-08T14:35:50.144Z,100947.00
2023-02-08T14:38:20.115Z,100948.78
2023-02-08T14:40:55.240Z,100957.25
2023-02-08T14:43:32.583Z,100956.38
2023-02-08T14:46:37.643Z,100953.00
2023-02-08T14:49:43.506Z,100945.97
2023-02-08T14:52:23.519Z,100941.53
2023-02-08T14:55:03.424Z,100932.91
2023-02-08T14:57:36.002Z,100941.72
2023-02-08T15:00:16.258Z,100935.63
2023-02-08T15:02:46.170Z,100926.88
2023-02-08T15:05:26.589Z,100924.34
2023-02-08T15:07:57.193Z,100920.75
2023-02-08T15:10:27.048Z,100920.75
2023-02-08T15:13:00.658Z,100931.16
2023-02-08T15:15:44.399Z,100927.66
2023-02-08T15:18:30.549Z,100923.25
2023-02-08T15:21:15.339Z,100919.75
2023-02-08T15:23:42.764Z,100929.19
2023-02-08T15:26:23.746Z,100918.84
2023-02-08T15:28:51.954Z,100930.69
2023-02-08T15:31:26.613Z,100924.09
2023-02-08T15:33:54.836Z,100916.22
2023-02-08T15:36:36.273Z,100932.47
2023-02-08T15:39:38.601Z,100929.16
2023-02-08T15:42:17.079Z,100925.81
2023-02-08T15:44:45.447Z,100922.25
2023-02-08T15:47:27.872Z,100924.56
2023-02-08T15:49:57.074Z,100925.16
2023-02-08T15:52:30.341Z,100924.19
2023-02-08T15:54:57.821Z,100923.38
2023-02-08T15:58:08.840Z,100928.81
2023-02-08T16:00:38.301Z,100931.50
2023-02-08T16:03:23.652Z,100933.28
2023-02-08T16:06:02.498Z,100927.91
2023-02-08T16:08:42.276Z,100932.91
2023-02-08T16:11:33.266Z,100927.75
2023-02-08T16:14:03.863Z,100926.13
2023-02-08T16:16:41.270Z,100925.38
2023-02-08T16:19:33.639Z,100922.78
2023-02-08T16:22:23.388Z,100932.19
2023-02-08T16:24:51.122Z,100922.34
2023-02-08T16:27:30.696Z,100923.38
2023-02-08T16:29:59.599Z,100925.00
2023-02-08T16:32:33.421Z,100916.34
2023-02-08T16:35:13.030Z,100920.56
2023-02-08T16:37:40.742Z,100932.72
2023-02-08T16:40:51.461Z,100934.34
2023-02-08T16:43:26.499Z,100936.94
2023-02-08T16:46:25.350Z,100939.44
2023-02-08T16:48:57.885Z,100925.38
2023-02-08T16:51:34.179Z,100926.09
2023-02-08T16:54:07.674Z,100913.16
2023-02-08T16:56:36.838Z,100914.00
2023-02-08T16:59:05.422Z,100922.59
2023-02-08T17:01:33.432Z,100910.44
2023-02-08T17:04:00.939Z,100912.00
2023-02-08T17:06:38.588Z,100909.41
2023-02-08T17:09:09.143Z,100909.28
2023-02-08T17:11:37.149Z,100902.13
2023-02-08T17:14:05.472Z,100908.25
2023-02-08T17:16:34.820Z,100908.16
2023-02-08T17:19:05.055Z,100906.44
2023-02-08T17:21:32.501Z,100903.78
2023-02-08T17:24:01.607Z,100908.00
2023-02-08T17:26:37.086Z,100905.38
2023-02-08T17:29:04.933Z,100907.91
2023-02-08T17:31:32.843Z,100920.09
2023-02-08T17:34:04.585Z,100915.75
2023-02-08T17:36:35.836Z,100923.44
2023-02-08T17:39:05.558Z,100920.00
2023-02-08T17:41:32.849Z,100922.50
2023-02-08T17:44:00.222Z,100912.16
2023-02-08T17:46:30.791Z,100911.31
2023-02-08T17:49:01.609Z,100919.94
2023-02-08T17:51:29.553Z,100910.41
2023-02-08T17:53:56.943Z,100912.94
2023-02-08T17:56:28.604Z,100914.63
2023-02-08T17:58:56.469Z,100913.72
2023-02-08T18:01:27.335Z,100924.06
2023-02-08T18:03:54.960Z,100919.66
2023-02-08T18:06:24.884Z,100921.34
2023-02-08T18:08:54.854Z,100915.19
2023-02-08T18:11:23.989Z,100925.47
2023-02-08T18:13:53.937Z,100925.47
2023-02-08T18:16:27.124Z,100926.28
2023-02-08T18:18:59.490Z,100927.09
2023-02-08T18:21:26.755Z,100921.84
2023-02-08T18:23:55.732Z,100915.72
2023-02-08T18:26:25.007Z,100920.88
2023-02-08T18:28:53.303Z,100918.16
2023-02-08T18:31:21.801Z,100921.38
2023-02-08T18:33:50.551Z,100920.59
2023-02-08T18:36:20.617Z,100917.84
2023-02-08T18:38:51.477Z,100917.63
2023-02-08T18:41:30.622Z,100918.31
2023-02-08T18:43:59.501Z,100920.09
2023-02-08T18:46:29.062Z,100919.41
2023-02-08T18:48:56.640Z,100921.28
2023-02-08T18:51:25.526Z,100922.94
2023-02-08T18:53:55.482Z,100922.94
2023-02-08T18:56:26.129Z,100925.47
2023-02-08T18:58:55.730Z,100924.59
2023-02-08T19:01:24.931Z,100926.22
2023-02-08T19:03:53.180Z,100921.78
2023-02-08T19:06:25.120Z,100924.31
2023-02-08T19:08:56.411Z,100926.06
2023-02-08T19:11:34.196Z,100925.13
2023-02-08T19:14:05.432Z,100926.81
2023-02-08T19:16:35.542Z,100921.00
2023-02-08T19:19:04.754Z,100920.31
2023-02-08T19:21:34.270Z,100918.56
2023-02-08T19:24:02.408Z,100912.53
2023-02-08T19:26:39.814Z,100909.97
2023-02-08T19:29:13.504Z,100915.63
2023-02-08T19:31:42.069Z,100920.13
2023-02-08T19:34:11.920Z,100915.53
2023-02-08T19:36:49.449Z,100916.44
2023-02-08T19:39:21.869Z,100916.50
2023-02-08T19:41:50.267Z,100919.97
2023-02-08T19:44:19.977Z,100911.78
2023-02-08T19:46:49.970Z,100902.09
2023-02-08T19:49:17.455Z,100891.41
2023-02-08T19:51:44.825Z,100894.06
2023-02-08T19:54:17.047Z,100891.34
2023-02-08T19:56:45.901Z,100883.13
2023-02-08T19:59:27.167Z,100881.13
2023-02-08T20:01:55.649Z,100880.56
2023-02-08T20:04:23.918Z,100878.22
2023-02-08T20:06:54.620Z,100879.03
2023-02-08T20:09:22.213Z,100864.09
2023-02-08T20:12:00.132Z,100870.00
2023-02-08T20:14:32.848Z,100870.13
2023-02-08T20:17:02.684Z,100870.38
2023-02-08T20:19:30.287Z,100868.50
2023-02-08T20:21:57.248Z,100859.34
2023-02-08T20:24:24.671Z,100852.50
2023-02-08T20:26:51.855Z,100850.19
2023-02-08T20:29:19.503Z,100855.44
2023-02-08T20:31:51.932Z,100856.19
2023-02-08T20:34:19.411Z,100857.03
2023-02-08T20:37:05.735Z,100855.16
2023-02-08T20:39:35.672Z,100851.78
2023-02-08T20:42:03.852Z,100849.81
2023-02-08T20:44:33.150Z,100846.94
2023-02-08T20:47:00.516Z,100842.03
2023-02-08T20:49:28.203Z,100837.50
2023-02-08T20:51:55.385Z,100824.28
2023-02-08T20:54:26.212Z,100824.63
2023-02-08T20:56:54.149Z,100820.53
2023-02-08T20:59:21.889Z,100814.25
2023-02-08T21:01:49.917Z,100812.09
2023-02-08T21:04:18.135Z,100814.31
2023-02-08T21:06:46.315Z,100816.00
2023-02-08T21:09:17.604Z,100815.41
2023-02-08T21:11:46.052Z,100813.13
2023-02-08T21:14:19.023Z,100814.97
2023-02-08T21:16:49.108Z,100819.16
2023-02-08T21:19:17.441Z,100809.03
2023-02-08T21:21:47.253Z,100818.47
2023-02-08T21:24:15.019Z,100821.06
2023-02-08T21:26:42.131Z,100812.47
2023-02-08T21:29:10.481Z,100816.13
2023-02-08T21:31:37.767Z,100822.00
2023-02-08T21:34:07.144Z,100830.00
2023-02-08T21:36:34.578Z,100837.09
2023-02-08T21:39:02.159Z,100836.28
2023-02-08T21:41:33.817Z,100840.63
2023-02-08T21:44:04.368Z,100828.56
2023-02-08T21:46:32.522Z,100818.25
2023-02-08T21:49:19.399Z,100825.91
2023-02-08T21:52:05.207Z,100816.47
2023-02-08T21:54:46.852Z,100813.06
2023-02-08T21:57:23.800Z,100805.28
2023-02-08T21:59:56.482Z,100796.47
2023-02-08T22:02:27.981Z,100801.72
2023-02-08T22:04:58.689Z,100783.50
2023-02-08T22:07:26.594Z,100787.81
2023-02-08T22:09:54.654Z,100783.50
2023-02-08T22:12:23.596Z,100780.84
2023-02-08T22:14:51.401Z,100783.56
2023-02-08T22:17:18.596Z,100786.03
2023-02-08T22:19:46.122Z,100778.97
2023-02-08T22:22:13.141Z,100776.19
2023-02-08T22:24:40.696Z,100779.22
2023-02-08T22:27:07.942Z,100773.13
2023-02-08T22:29:35.436Z,100769.84
2023-02-08T22:32:02.781Z,100773.41
2023-02-08T22:34:30.310Z,100776.00
2023-02-08T22:36:57.930Z,100766.56
2023-02-08T22:39:25.226Z,100760.56
2023-02-08T22:41:52.154Z,100769.22
2023-02-08T22:44:19.400Z,100762.34
2023-02-08T22:46:46.346Z,100763.22
2023-02-08T22:49:13.797Z,100762.34
2023-02-08T22:51:40.794Z,100758.78
2023-02-08T22:54:07.938Z,100749.28
2023-02-08T22:56:34.889Z,100751.78
2023-02-08T22:59:02.361Z,100751.81
2023-02-08T23:01:29.436Z,100751.88
2023-02-08T23:04:00.610Z,100745.66
2023-02-08T23:06:27.756Z,100748.41
2023-02-08T23:09:15.756Z,100745.75
2023-02-08T23:11:43.470Z,100754.34
2023-02-08T23:14:10.836Z,100755.97
2023-02-08T23:16:38.492Z,100757.75
2023-02-08T23:19:06.045Z,100748.19
2023-02-08T23:27:08.804Z,100751.59
2023-02-08T23:29:41.320Z,100741.91
2023-02-08T23:32:13.506Z,100741.88
2023-02-08T23:34:40.442Z,100742.59
2023-02-08T23:37:07.884Z,100729.47
2023-02-08T23:39:34.902Z,100731.25
2023-02-08T23:42:02.148Z,100730.44
2023-02-08T23:44:29.179Z,100730.97
2023-02-08T23:46:56.659Z,100723.00
2023-02-08T23:49:29.902Z,100724.44
2023-02-08T23:51:57.167Z,100723.13
2023-02-08T23:54:24.749Z,100729.09
2023-02-08T23:56:52.063Z,100721.25
2023-02-08T23:59:19.013Z,100716.88
